Brandywine, New York
Current Conditions -  °F | °C
As of 6:51 PM on Saturday 25 Oct 2014 (Local Time) from KALB Reporting Station
Broken Clouds Broken Clouds  
Wind Chill: 59°   Ceiling: 25000
Heat Index: 59°   Visibility: 10mi
Dew Point: 44°   Wind: 7mph
Humidity: 58%   Direction: 170°S
Pressure: 29.54"   Gusts: NA
Location:  42.7747°N, 73.8974°W
Report Text: KALB 252251Z 17006KT 10SM FEW070 SCT110 BKN250 15/07 A2954 RMK AO2 SLP005 T01500067 $
Loading
Personal Weather Stations






























Interactive Weather Map
Tropical Storm Tracking
New forecast layout! Learn more

10-Day Weather Forecast

Advertisements
Track Severe Weather on mobile